sensor_id;sensor_type;location;lat;lon;timestamp;pressure;altitude;pressure_sealevel;temperature;humidity
24610;BME280;12758;47.890;11.694;2022-09-12T00:01:25;94078.41;;;14.86;73.78
24610;BME280;12758;47.890;11.694;2022-09-12T00:03:52;94071.69;;;14.84;73.63
24610;BME280;12758;47.890;11.694;2022-09-12T00:06:21;94074.41;;;14.84;73.77
24610;BME280;12758;47.890;11.694;2022-09-12T00:08:47;94070.06;;;14.83;73.51
24610;BME280;12758;47.890;11.694;2022-09-12T00:11:13;94069.28;;;14.82;73.68
24610;BME280;12758;47.890;11.694;2022-09-12T00:13:40;94062.25;;;14.81;73.60
24610;BME280;12758;47.890;11.694;2022-09-12T00:16:12;94067.63;;;14.78;73.57
24610;BME280;12758;47.890;11.694;2022-09-12T00:18:39;94064.97;;;14.81;73.54
24610;BME280;12758;47.890;11.694;2022-09-12T00:21:05;94053.59;;;14.79;73.32
24610;BME280;12758;47.890;11.694;2022-09-12T00:23:31;94062.25;;;14.81;73.41
24610;BME280;12758;47.890;11.694;2022-09-12T00:25:57;94061.44;;;14.81;72.93
24610;BME280;12758;47.890;11.694;2022-09-12T00:28:24;94057.47;;;14.78;73.21
24610;BME280;12758;47.890;11.694;2022-09-12T00:30:50;94055.09;;;14.77;73.03
24610;BME280;12758;47.890;11.694;2022-09-12T00:33:16;94045.66;;;14.74;73.50
24610;BME280;12758;47.890;11.694;2022-09-12T00:35:43;94050.34;;;14.74;73.05
24610;BME280;12758;47.890;11.694;2022-09-12T00:38:09;94042.47;;;14.72;73.55
24610;BME280;12758;47.890;11.694;2022-09-12T00:40:36;94048.63;;;14.69;73.51
24610;BME280;12758;47.890;11.694;2022-09-12T00:43:02;94046.59;;;14.66;73.32
24610;BME280;12758;47.890;11.694;2022-09-12T00:45:29;94040.72;;;14.64;73.36
24610;BME280;12758;47.890;11.694;2022-09-12T00:47:56;94036.72;;;14.61;73.41
24610;BME280;12758;47.890;11.694;2022-09-12T00:50:25;94044.13;;;14.61;73.43
24610;BME280;12758;47.890;11.694;2022-09-12T00:52:52;94038.22;;;14.59;73.35
24610;BME280;12758;47.890;11.694;2022-09-12T00:55:21;94037.06;;;14.60;73.20
24610;BME280;12758;47.890;11.694;2022-09-12T00:57:49;94035.03;;;14.57;73.29
24610;BME280;12758;47.890;11.694;2022-09-12T01:00:18;94037.44;;;14.58;73.50
24610;BME280;12758;47.890;11.694;2022-09-12T01:02:47;94026.03;;;14.56;73.39
24610;BME280;12758;47.890;11.694;2022-09-12T01:05:14;94025.63;;;14.54;73.34
24610;BME280;12758;47.890;11.694;2022-09-12T01:07:40;94022.06;;;14.54;73.28
24610;BME280;12758;47.890;11.694;2022-09-12T01:10:08;94023.22;;;14.53;73.12
24610;BME280;12758;47.890;11.694;2022-09-12T01:12:34;94027.09;;;14.52;73.12
24610;BME280;12758;47.890;11.694;2022-09-12T01:15:03;94015.38;;;14.51;73.26
24610;BME280;12758;47.890;11.694;2022-09-12T01:17:32;94013.75;;;14.50;72.91
24610;BME280;12758;47.890;11.694;2022-09-12T01:20:26;94015.03;;;14.53;73.09
24610;BME280;12758;47.890;11.694;2022-09-12T01:23:12;94009.44;;;14.49;72.84
24610;BME280;12758;47.890;11.694;2022-09-12T01:25:53;94008.88;;;14.43;72.86
24610;BME280;12758;47.890;11.694;2022-09-12T01:28:53;94000.28;;;14.41;73.05
24610;BME280;12758;47.890;11.694;2022-09-12T01:31:23;93997.97;;;14.43;73.11
24610;BME280;12758;47.890;11.694;2022-09-12T01:33:59;93992.31;;;14.36;71.52
24610;BME280;12758;47.890;11.694;2022-09-12T01:36:35;93992.06;;;14.41;72.83
24610;BME280;12758;47.890;11.694;2022-09-12T01:39:04;93997.97;;;14.43;72.50
24610;BME280;12758;47.890;11.694;2022-09-12T01:41:39;93990.22;;;14.45;72.76
24610;BME280;12758;47.890;11.694;2022-09-12T01:44:10;93982.28;;;14.40;72.69
24610;BME280;12758;47.890;11.694;2022-09-12T01:46:41;93982.19;;;14.37;72.96
24610;BME280;12758;47.890;11.694;2022-09-12T01:49:13;93988.34;;;14.34;72.85
24610;BME280;12758;47.890;11.694;2022-09-12T01:51:42;93979.00;;;14.35;72.67
24610;BME280;12758;47.890;11.694;2022-09-12T01:54:17;93980.50;;;14.32;72.99
24610;BME280;12758;47.890;11.694;2022-09-12T01:56:45;93973.34;;;14.28;72.68
24610;BME280;12758;47.890;11.694;2022-09-12T01:59:15;93984.72;;;14.30;72.52
24610;BME280;12758;47.890;11.694;2022-09-12T02:01:44;93975.28;;;14.27;72.76
24610;BME280;12758;47.890;11.694;2022-09-12T02:04:13;93968.56;;;14.25;72.83
24610;BME280;12758;47.890;11.694;2022-09-12T02:06:43;93980.28;;;14.25;73.04
24610;BME280;12758;47.890;11.694;2022-09-12T02:09:18;93975.66;;;14.26;72.80
24610;BME280;12758;47.890;11.694;2022-09-12T02:11:45;93973.25;;;14.24;72.86
24610;BME280;12758;47.890;11.694;2022-09-12T02:14:16;93972.78;;;14.22;72.36
24610;BME280;12758;47.890;11.694;2022-09-12T02:16:47;93963.91;;;14.25;72.61
24610;BME280;12758;47.890;11.694;2022-09-12T02:19:17;93961.63;;;14.27;72.49
24610;BME280;12758;47.890;11.694;2022-09-12T02:21:46;93966.63;;;14.25;72.67
24610;BME280;12758;47.890;11.694;2022-09-12T02:24:15;93952.97;;;14.25;72.44
24610;BME280;12758;47.890;11.694;2022-09-12T02:26:45;93955.38;;;14.27;72.34
24610;BME280;12758;47.890;11.694;2022-09-12T02:29:12;93958.44;;;14.25;72.39
24610;BME280;12758;47.890;11.694;2022-09-12T02:31:40;93952.09;;;14.21;72.25
24610;BME280;12758;47.890;11.694;2022-09-12T02:34:20;93953.94;;;14.17;72.35
24610;BME280;12758;47.890;11.694;2022-09-12T02:36:53;93949.28;;;14.17;72.22
24610;BME280;12758;47.890;11.694;2022-09-12T02:39:23;93957.38;;;14.14;72.26
24610;BME280;12758;47.890;11.694;2022-09-12T02:41:49;93948.72;;;14.12;72.42
24610;BME280;12758;47.890;11.694;2022-09-12T02:44:16;93948.63;;;14.08;72.41
24610;BME280;12758;47.890;11.694;2022-09-12T02:46:43;93948.72;;;14.12;71.72
24610;BME280;12758;47.890;11.694;2022-09-12T02:49:12;93953.31;;;14.08;72.37
24610;BME280;12758;47.890;11.694;2022-09-12T02:51:38;93952.59;;;14.11;72.10
24610;BME280;12758;47.890;11.694;2022-09-12T02:54:05;93945.81;;;14.05;72.36
24610;BME280;12758;47.890;11.694;2022-09-12T02:56:32;93948.53;;;14.05;72.24
24610;BME280;12758;47.890;11.694;2022-09-12T02:59:00;93948.06;;;14.03;72.37
24610;BME280;12758;47.890;11.694;2022-09-12T03:01:34;93947.66;;;14.01;72.17
24610;BME280;12758;47.890;11.694;2022-09-12T03:04:24;93942.88;;;13.97;72.45
24610;BME280;12758;47.890;11.694;2022-09-12T03:07:00;93939.78;;;13.99;72.52
24610;BME280;12758;47.890;11.694;2022-09-12T03:09:34;93944.47;;;13.98;72.29
24610;BME280;12758;47.890;11.694;2022-09-12T03:12:12;93941.31;;;13.96;71.99
24610;BME280;12758;47.890;11.694;2022-09-12T03:14:52;93946.75;;;13.96;72.33
24610;BME280;12758;47.890;11.694;2022-09-12T03:17:29;93943.22;;;13.96;72.10
24610;BME280;12758;47.890;11.694;2022-09-12T03:20:00;93948.56;;;13.92;72.01
24610;BME280;12758;47.890;11.694;2022-09-12T03:22:30;93946.22;;;13.91;72.16
24610;BME280;12758;47.890;11.694;2022-09-12T03:25:02;93931.78;;;13.90;72.09
24610;BME280;12758;47.890;11.694;2022-09-12T03:27:32;93940.28;;;13.89;72.06
24610;BME280;12758;47.890;11.694;2022-09-12T03:29:59;93935.63;;;13.89;72.23
24610;BME280;12758;47.890;11.694;2022-09-12T03:32:42;93942.59;;;13.87;72.12
24610;BME280;12758;47.890;11.694;2022-09-12T03:35:09;93934.75;;;13.85;71.79
24610;BME280;12758;47.890;11.694;2022-09-12T03:37:36;93929.19;;;13.82;72.33
24610;BME280;12758;47.890;11.694;2022-09-12T03:40:02;93929.50;;;13.80;71.98
24610;BME280;12758;47.890;11.694;2022-09-12T03:42:29;93933.50;;;13.83;71.72
24610;BME280;12758;47.890;11.694;2022-09-12T03:44:55;93936.47;;;13.78;71.90
24610;BME280;12758;47.890;11.694;2022-09-12T03:47:21;93929.88;;;13.79;71.75
24610;BME280;12758;47.890;11.694;2022-09-12T03:49:47;93937.28;;;13.78;71.70
24610;BME280;12758;47.890;11.694;2022-09-12T03:52:13;93929.88;;;13.79;71.98
24610;BME280;12758;47.890;11.694;2022-09-12T03:54:39;93936.81;;;13.76;71.78
24610;BME280;12758;47.890;11.694;2022-09-12T03:57:05;93936.03;;;13.75;71.84
24610;BME280;12758;47.890;11.694;2022-09-12T03:59:31;93931.34;;;13.76;71.94
24610;BME280;12758;47.890;11.694;2022-09-12T04:01:57;93931.34;;;13.76;71.77
24610;BME280;12758;47.890;11.694;2022-09-12T04:04:24;93932.75;;;13.70;71.60
24610;BME280;12758;47.890;11.694;2022-09-12T04:06:50;93928.88;;;13.71;71.92
24610;BME280;12758;47.890;11.694;2022-09-12T04:09:16;93918.66;;;13.68;72.14
24610;BME280;12758;47.890;11.694;2022-09-12T04:11:42;93931.16;;;13.69;71.78
24610;BME280;12758;47.890;11.694;2022-09-12T04:14:08;93934.22;;;13.67;71.87
24610;BME280;12758;47.890;11.694;2022-09-12T04:16:34;93937.31;;;13.66;71.42
24610;BME280;12758;47.890;11.694;2022-09-12T04:19:00;93935.25;;;13.63;71.74
24610;BME280;12758;47.890;11.694;2022-09-12T04:21:26;93935.72;;;13.65;71.98
24610;BME280;12758;47.890;11.694;2022-09-12T04:23:52;93936.41;;;13.62;71.68
24610;BME280;12758;47.890;11.694;2022-09-12T04:26:19;93931.38;;;13.64;72.10
24610;BME280;12758;47.890;11.694;2022-09-12T04:28:46;93932.22;;;13.64;71.67
24610;BME280;12758;47.890;11.694;2022-09-12T04:31:13;93933.31;;;13.63;71.73
24610;BME280;12758;47.890;11.694;2022-09-12T04:33:42;93925.50;;;13.62;71.66
24610;BME280;12758;47.890;11.694;2022-09-12T04:36:09;93926.97;;;13.59;71.67
24610;BME280;12758;47.890;11.694;2022-09-12T04:38:36;93930.03;;;13.58;71.61
24610;BME280;12758;47.890;11.694;2022-09-12T04:41:09;93924.47;;;13.54;71.59
24610;BME280;12758;47.890;11.694;2022-09-12T04:43:36;93925.28;;;13.55;71.81
24610;BME280;12758;47.890;11.694;2022-09-12T04:46:04;93929.16;;;13.54;71.81
24610;BME280;12758;47.890;11.694;2022-09-12T04:48:30;93927.56;;;13.52;71.63
24610;BME280;12758;47.890;11.694;2022-09-12T04:51:05;93935.28;;;13.50;71.45
24610;BME280;12758;47.890;11.694;2022-09-12T04:53:31;93932.91;;;13.49;71.90
24610;BME280;12758;47.890;11.694;2022-09-12T04:56:00;93930.31;;;13.40;70.80
24610;BME280;12758;47.890;11.694;2022-09-12T04:58:26;93928.72;;;13.39;71.57
24610;BME280;12758;47.890;11.694;2022-09-12T05:00:53;93933.50;;;13.42;71.91
24610;BME280;12758;47.890;11.694;2022-09-12T05:03:19;93934.97;;;13.40;71.65
24610;BME280;12758;47.890;11.694;2022-09-12T05:05:45;93931.00;;;13.37;71.83
24610;BME280;12758;47.890;11.694;2022-09-12T05:08:11;93938.72;;;13.35;71.65
24610;BME280;12758;47.890;11.694;2022-09-12T05:10:37;93934.63;;;13.41;71.62
24610;BME280;12758;47.890;11.694;2022-09-12T05:13:03;93943.63;;;13.42;71.92
24610;BME280;12758;47.890;11.694;2022-09-12T05:15:29;93937.59;;;13.36;71.40
24610;BME280;12758;47.890;11.694;2022-09-12T05:17:56;93942.38;;;13.39;71.95
24610;BME280;12758;47.890;11.694;2022-09-12T05:20:22;93935.78;;;13.40;71.46
24610;BME280;12758;47.890;11.694;2022-09-12T05:22:48;93940.31;;;13.36;72.01
24610;BME280;12758;47.890;11.694;2022-09-12T05:25:14;93935.78;;;13.40;71.75
24610;BME280;12758;47.890;11.694;2022-09-12T05:27:40;93940.44;;;13.40;71.82
24610;BME280;12758;47.890;11.694;2022-09-12T05:30:07;93942.81;;;13.41;71.87
24610;BME280;12758;47.890;11.694;2022-09-12T05:32:33;93947.81;;;13.39;71.91
24610;BME280;12758;47.890;11.694;2022-09-12T05:35:00;93952.47;;;13.39;71.54
24610;BME280;12758;47.890;11.694;2022-09-12T05:37:26;93955.53;;;13.37;71.51
24610;BME280;12758;47.890;11.694;2022-09-12T05:39:53;93949.88;;;13.42;71.48
24610;BME280;12758;47.890;11.694;2022-09-12T05:42:19;93949.88;;;13.42;71.87
24610;BME280;12758;47.890;11.694;2022-09-12T05:44:45;93958.47;;;13.44;71.73
24610;BME280;12758;47.890;11.694;2022-09-12T05:47:11;93944.16;;;13.35;71.02
24610;BME280;12758;47.890;11.694;2022-09-12T05:49:37;93952.34;;;13.35;71.41
24610;BME280;12758;47.890;11.694;2022-09-12T05:52:03;93943.06;;;13.36;72.10
24610;BME280;12758;47.890;11.694;2022-09-12T05:54:29;93952.09;;;13.16;71.49
24610;BME280;12758;47.890;11.694;2022-09-12T05:56:56;93951.22;;;12.99;72.55
24610;BME280;12758;47.890;11.694;2022-09-12T05:59:22;93956.66;;;13.12;73.16
24610;BME280;12758;47.890;11.694;2022-09-12T06:01:48;93947.59;;;13.08;72.73
24610;BME280;12758;47.890;11.694;2022-09-12T06:04:15;93950.78;;;12.97;72.67
24610;BME280;12758;47.890;11.694;2022-09-12T06:06:42;93949.63;;;12.86;73.37
24610;BME280;12758;47.890;11.694;2022-09-12T06:09:10;93955.28;;;12.93;73.84
24610;BME280;12758;47.890;11.694;2022-09-12T06:11:37;93943.97;;;12.91;73.66
24610;BME280;12758;47.890;11.694;2022-09-12T06:14:06;93950.31;;;12.95;73.57
24610;BME280;12758;47.890;11.694;2022-09-12T06:16:33;93949.41;;;13.03;74.08
24610;BME280;12758;47.890;11.694;2022-09-12T06:19:00;93952.34;;;12.98;73.91
24610;BME280;12758;47.890;11.694;2022-09-12T06:21:26;93950.28;;;12.71;75.57
24610;BME280;12758;47.890;11.694;2022-09-12T06:23:53;93948.47;;;12.63;76.64
24610;BME280;12758;47.890;11.694;2022-09-12T06:26:20;93948.13;;;12.64;77.23
24610;BME280;12758;47.890;11.694;2022-09-12T06:28:48;93947.56;;;12.71;76.67
24610;BME280;12758;47.890;11.694;2022-09-12T06:31:16;93940.31;;;12.75;75.71
24610;BME280;12758;47.890;11.694;2022-09-12T06:33:44;93940.97;;;12.59;77.38
24610;BME280;12758;47.890;11.694;2022-09-12T06:36:12;93942.78;;;12.55;78.14
24610;BME280;12758;47.890;11.694;2022-09-12T06:38:39;93952.47;;;12.32;79.32
24610;BME280;12758;47.890;11.694;2022-09-12T06:41:05;93950.03;;;12.51;79.11
24610;BME280;12758;47.890;11.694;2022-09-12T06:43:33;93953.00;;;12.46;79.52
24610;BME280;12758;47.890;11.694;2022-09-12T06:45:59;93958.72;;;12.32;80.16
24610;BME280;12758;47.890;11.694;2022-09-12T06:48:26;93964.72;;;12.26;81.42
24610;BME280;12758;47.890;11.694;2022-09-12T06:50:56;93960.22;;;12.30;81.84
24610;BME280;12758;47.890;11.694;2022-09-12T06:53:22;93958.47;;;12.25;81.95
24610;BME280;12758;47.890;11.694;2022-09-12T06:55:54;93962.53;;;12.19;83.17
24610;BME280;12758;47.890;11.694;2022-09-12T06:58:20;93965.22;;;12.40;83.11
24610;BME280;12758;47.890;11.694;2022-09-12T07:00:47;93966.16;;;12.56;81.55
24610;BME280;12758;47.890;11.694;2022-09-12T07:03:13;93955.47;;;12.51;82.73
24610;BME280;12758;47.890;11.694;2022-09-12T07:05:39;93966.91;;;12.45;82.56
24610;BME280;12758;47.890;11.694;2022-09-12T07:08:05;93959.31;;;12.38;83.04
24610;BME280;12758;47.890;11.694;2022-09-12T07:10:31;93958.81;;;12.69;81.66
24610;BME280;12758;47.890;11.694;2022-09-12T07:12:56;93958.72;;;12.78;81.87
24610;BME280;12758;47.890;11.694;2022-09-12T07:15:23;93965.97;;;12.86;82.73
24610;BME280;12758;47.890;11.694;2022-09-12T07:17:50;93966.19;;;12.93;80.99
24610;BME280;12758;47.890;11.694;2022-09-12T07:20:16;93961.22;;;13.08;80.50
24610;BME280;12758;47.890;11.694;2022-09-12T07:22:42;93955.97;;;12.90;80.13
24610;BME280;12758;47.890;11.694;2022-09-12T07:25:08;93963.00;;;12.79;80.20
24610;BME280;12758;47.890;11.694;2022-09-12T07:27:34;93958.38;;;12.92;80.67
24610;BME280;12758;47.890;11.694;2022-09-12T07:30:02;93958.03;;;13.05;79.47
24610;BME280;12758;47.890;11.694;2022-09-12T07:32:29;93962.13;;;13.36;78.25
24610;BME280;12758;47.890;11.694;2022-09-12T07:34:55;93964.63;;;13.41;77.13
24610;BME280;12758;47.890;11.694;2022-09-12T07:37:21;93960.78;;;13.42;78.14
24610;BME280;12758;47.890;11.694;2022-09-12T07:39:48;93963.03;;;13.52;76.96
24610;BME280;12758;47.890;11.694;2022-09-12T07:42:14;93960.09;;;13.45;77.82
24610;BME280;12758;47.890;11.694;2022-09-12T07:44:40;93961.44;;;13.39;78.24
24610;BME280;12758;47.890;11.694;2022-09-12T07:47:06;93966.66;;;13.44;77.92
24610;BME280;12758;47.890;11.694;2022-09-12T07:49:32;93963.50;;;13.30;78.07
24610;BME280;12758;47.890;11.694;2022-09-12T07:51:58;93967.59;;;13.36;80.20
24610;BME280;12758;47.890;11.694;2022-09-12T07:54:24;93970.25;;;13.61;77.79
24610;BME280;12758;47.890;11.694;2022-09-12T07:56:50;93963.09;;;13.68;77.27
24610;BME280;12758;47.890;11.694;2022-09-12T07:59:16;93969.13;;;13.62;78.31
24610;BME280;12758;47.890;11.694;2022-09-12T08:01:42;93973.22;;;13.68;79.36
24610;BME280;12758;47.890;11.694;2022-09-12T08:04:08;93971.38;;;13.72;79.75
24610;BME280;12758;47.890;11.694;2022-09-12T08:06:34;93967.16;;;13.87;77.50
24610;BME280;12758;47.890;11.694;2022-09-12T08:09:03;93974.97;;;13.88;75.85
24610;BME280;12758;47.890;11.694;2022-09-12T08:11:29;93977.22;;;13.98;77.93
24610;BME280;12758;47.890;11.694;2022-09-12T08:13:56;93973.22;;;13.96;76.11
24610;BME280;12758;47.890;11.694;2022-09-12T08:16:24;93982.66;;;13.98;80.03
24610;BME280;12758;47.890;11.694;2022-09-12T08:18:50;93983.38;;;13.95;78.81
24610;BME280;12758;47.890;11.694;2022-09-12T08:21:17;93973.13;;;13.92;76.92
24610;BME280;12758;47.890;11.694;2022-09-12T08:23:44;93970.06;;;13.94;75.72
24610;BME280;12758;47.890;11.694;2022-09-12T08:26:11;93975.81;;;14.05;75.43
24610;BME280;12758;47.890;11.694;2022-09-12T08:28:38;93974.94;;;14.01;75.34
24610;BME280;12758;47.890;11.694;2022-09-12T08:31:06;93976.53;;;14.02;75.74
24610;BME280;12758;47.890;11.694;2022-09-12T08:33:33;93977.41;;;14.06;76.48
24610;BME280;12758;47.890;11.694;2022-09-12T08:36:03;93984.00;;;14.05;76.37
24610;BME280;12758;47.890;11.694;2022-09-12T08:38:30;93984.91;;;14.09;76.32
24610;BME280;12758;47.890;11.694;2022-09-12T08:41:01;93983.13;;;14.01;75.28
24610;BME280;12758;47.890;11.694;2022-09-12T08:43:36;93982.44;;;14.04;75.53
24610;BME280;12758;47.890;11.694;2022-09-12T08:46:11;93981.97;;;14.02;76.16
24610;BME280;12758;47.890;11.694;2022-09-12T08:48:39;93973.66;;;14.10;78.66
24610;BME280;12758;47.890;11.694;2022-09-12T08:51:07;93987.78;;;14.28;80.90
24610;BME280;12758;47.890;11.694;2022-09-12T08:53:37;93984.34;;;14.31;78.92
24610;BME280;12758;47.890;11.694;2022-09-12T08:56:04;93980.09;;;14.18;76.33
24610;BME280;12758;47.890;11.694;2022-09-12T08:58:32;93965.09;;;14.12;76.11
24610;BME280;12758;47.890;11.694;2022-09-12T09:01:02;93979.91;;;14.11;75.79
24610;BME280;12758;47.890;11.694;2022-09-12T09:03:45;93979.41;;;14.21;78.77
24610;BME280;12758;47.890;11.694;2022-09-12T09:06:21;93968.47;;;14.21;76.56
24610;BME280;12758;47.890;11.694;2022-09-12T09:08:55;93971.91;;;14.18;76.58
24610;BME280;12758;47.890;11.694;2022-09-12T09:11:36;93969.38;;;14.25;76.57
24610;BME280;12758;47.890;11.694;2022-09-12T09:14:18;93970.28;;;14.29;75.72
24610;BME280;12758;47.890;11.694;2022-09-12T09:17:08;93962.72;;;14.38;75.10
24610;BME280;12758;47.890;11.694;2022-09-12T09:19:37;93967.38;;;14.66;74.37
24610;BME280;12758;47.890;11.694;2022-09-12T09:22:05;93964.94;;;14.77;73.94
24610;BME280;12758;47.890;11.694;2022-09-12T09:24:36;93953.63;;;14.78;74.58
24610;BME280;12758;47.890;11.694;2022-09-12T09:27:04;93957.94;;;14.63;74.65
24610;BME280;12758;47.890;11.694;2022-09-12T09:29:35;93959.88;;;14.63;75.44
24610;BME280;12758;47.890;11.694;2022-09-12T09:32:11;93954.94;;;14.68;77.16
24610;BME280;12758;47.890;11.694;2022-09-12T09:34:39;93953.47;;;14.71;74.83
24610;BME280;12758;47.890;11.694;2022-09-12T09:37:08;93955.59;;;14.94;78.03
24610;BME280;12758;47.890;11.694;2022-09-12T09:39:46;93947.28;;;15.22;72.76
24610;BME280;12758;47.890;11.694;2022-09-12T09:42:21;93951.69;;;15.26;73.05
24610;BME280;12758;47.890;11.694;2022-09-12T09:44:51;93948.16;;;15.10;72.31
24610;BME280;12758;47.890;11.694;2022-09-12T09:47:19;93947.38;;;15.09;73.61
24610;BME280;12758;47.890;11.694;2022-09-12T09:49:45;93952.22;;;15.16;72.38
24610;BME280;12758;47.890;11.694;2022-09-12T09:52:13;93943.22;;;15.31;71.09
24610;BME280;12758;47.890;11.694;2022-09-12T09:54:42;93945.34;;;15.22;71.68
24610;BME280;12758;47.890;11.694;2022-09-12T09:57:43;93944.19;;;15.23;71.39
24610;BME280;12758;47.890;11.694;2022-09-12T10:00:25;93948.22;;;15.80;73.75
24610;BME280;12758;47.890;11.694;2022-09-12T10:03:00;93944.19;;;15.74;71.37
24610;BME280;12758;47.890;11.694;2022-09-12T10:05:28;93940.38;;;15.63;70.24
24610;BME280;12758;47.890;11.694;2022-09-12T10:07:55;93944.03;;;15.67;70.35
24610;BME280;12758;47.890;11.694;2022-09-12T10:10:21;93946.84;;;15.55;70.35
24610;BME280;12758;47.890;11.694;2022-09-12T10:12:47;93947.00;;;15.62;70.79
24610;BME280;12758;47.890;11.694;2022-09-12T10:15:18;93945.19;;;15.86;71.15
24610;BME280;12758;47.890;11.694;2022-09-12T10:17:46;93943.81;;;15.76;70.99
24610;BME280;12758;47.890;11.694;2022-09-12T10:20:28;93935.06;;;15.86;70.28
24610;BME280;12758;47.890;11.694;2022-09-12T10:22:55;93937.72;;;16.02;69.92
24610;BME280;12758;47.890;11.694;2022-09-12T10:25:21;93942.91;;;16.07;72.34
24610;BME280;12758;47.890;11.694;2022-09-12T10:27:53;93940.28;;;16.14;69.27
24610;BME280;12758;47.890;11.694;2022-09-12T10:30:21;93932.81;;;15.92;70.67
24610;BME280;12758;47.890;11.694;2022-09-12T10:32:50;93933.31;;;16.17;70.11
24610;BME280;12758;47.890;11.694;2022-09-12T10:35:17;93931.16;;;16.26;70.21
24610;BME280;12758;47.890;11.694;2022-09-12T10:37:53;93927.31;;;16.30;70.28
24610;BME280;12758;47.890;11.694;2022-09-12T10:40:22;93931.00;;;16.38;72.73
24610;BME280;12758;47.890;11.694;2022-09-12T10:42:50;93930.94;;;16.15;69.60
24610;BME280;12758;47.890;11.694;2022-09-12T10:45:21;93933.59;;;16.31;68.63
24610;BME280;12758;47.890;11.694;2022-09-12T10:47:50;93936.56;;;16.22;70.85
24610;BME280;12758;47.890;11.694;2022-09-12T10:50:21;93929.19;;;16.26;69.12
24610;BME280;12758;47.890;11.694;2022-09-12T10:52:48;93931.22;;;16.29;68.79
24610;BME280;12758;47.890;11.694;2022-09-12T10:55:14;93924.94;;;16.29;68.34
24610;BME280;12758;47.890;11.694;2022-09-12T10:57:53;93917.63;;;16.37;67.52
24610;BME280;12758;47.890;11.694;2022-09-12T11:00:22;93922.41;;;16.20;69.53
24610;BME280;12758;47.890;11.694;2022-09-12T11:03:05;93918.38;;;16.14;70.90
24610;BME280;12758;47.890;11.694;2022-09-12T11:05:44;93915.06;;;16.05;69.90
24610;BME280;12758;47.890;11.694;2022-09-12T11:08:28;93918.38;;;16.14;69.36
24610;BME280;12758;47.890;11.694;2022-09-12T11:11:00;93908.59;;;16.13;69.47
24610;BME280;12758;47.890;11.694;2022-09-12T11:13:38;93907.66;;;16.25;71.28
24610;BME280;12758;47.890;11.694;2022-09-12T11:16:15;93916.50;;;16.80;71.11
24610;BME280;12758;47.890;11.694;2022-09-12T11:18:55;93917.94;;;16.32;69.20
24610;BME280;12758;47.890;11.694;2022-09-12T11:21:33;93914.78;;;16.29;70.80
24610;BME280;12758;47.890;11.694;2022-09-12T11:24:13;93916.06;;;16.36;67.71
24610;BME280;12758;47.890;11.694;2022-09-12T11:26:51;93919.28;;;16.18;68.52
24610;BME280;12758;47.890;11.694;2022-09-12T11:29:25;93911.66;;;16.73;64.70
24610;BME280;12758;47.890;11.694;2022-09-12T11:32:21;93909.56;;;16.44;65.24
24610;BME280;12758;47.890;11.694;2022-09-12T11:34:57;93915.22;;;16.32;67.97
24610;BME280;12758;47.890;11.694;2022-09-12T11:37:40;93911.03;;;16.38;67.23
24610;BME280;12758;47.890;11.694;2022-09-12T11:40:20;93911.13;;;17.37;65.08
24610;BME280;12758;47.890;11.694;2022-09-12T11:42:48;93908.59;;;17.25;65.26
24610;BME280;12758;47.890;11.694;2022-09-12T11:45:18;93911.81;;;16.61;66.34
24610;BME280;12758;47.890;11.694;2022-09-12T11:47:51;93903.22;;;16.82;64.33
24610;BME280;12758;47.890;11.694;2022-09-12T11:50:22;93903.28;;;16.86;67.41
24610;BME280;12758;47.890;11.694;2022-09-12T11:52:51;93896.44;;;16.99;64.35
24610;BME280;12758;47.890;11.694;2022-09-12T11:55:19;93890.94;;;17.52;62.35
24610;BME280;12758;47.890;11.694;2022-09-12T11:57:49;93896.94;;;17.61;62.48
24610;BME280;12758;47.890;11.694;2022-09-12T12:00:19;93898.16;;;17.64;60.79
24610;BME280;12758;47.890;11.694;2022-09-12T12:02:50;93886.50;;;17.70;60.79
24610;BME280;12758;47.890;11.694;2022-09-12T12:05:23;93899.59;;;17.01;64.04
24610;BME280;12758;47.890;11.694;2022-09-12T12:07:52;93887.34;;;16.72;65.98
24610;BME280;12758;47.890;11.694;2022-09-12T12:10:24;93896.13;;;16.58;66.04
24610;BME280;12758;47.890;11.694;2022-09-12T12:12:51;93890.19;;;16.56;66.51
24610;BME280;12758;47.890;11.694;2022-09-12T12:15:18;93888.19;;;16.53;67.33
24610;BME280;12758;47.890;11.694;2022-09-12T12:17:58;93890.31;;;17.09;62.72
24610;BME280;12758;47.890;11.694;2022-09-12T12:20:26;93892.47;;;16.96;62.67
24610;BME280;12758;47.890;11.694;2022-09-12T12:22:53;93890.53;;;17.23;62.86
24610;BME280;12758;47.890;11.694;2022-09-12T12:25:25;93895.19;;;17.19;64.16
24610;BME280;12758;47.890;11.694;2022-09-12T12:28:02;93893.56;;;17.72;62.16
24610;BME280;12758;47.890;11.694;2022-09-12T12:30:57;93894.06;;;16.97;64.97
24610;BME280;12758;47.890;11.694;2022-09-12T12:33:51;93881.66;;;17.07;63.30
24610;BME280;12758;47.890;11.694;2022-09-12T12:36:30;93887.88;;;18.18;60.67
24610;BME280;12758;47.890;11.694;2022-09-12T12:38:58;93881.78;;;18.35;61.09
24610;BME280;12758;47.890;11.694;2022-09-12T12:41:43;93882.38;;;17.84;62.20
24610;BME280;12758;47.890;11.694;2022-09-12T12:47:22;93879.56;;;17.50;64.84
24610;BME280;12758;47.890;11.694;2022-09-12T12:49:49;93874.22;;;17.91;62.92
24610;BME280;12758;47.890;11.694;2022-09-12T12:52:17;93871.75;;;17.26;64.26
24610;BME280;12758;47.890;11.694;2022-09-12T12:54:50;93867.84;;;17.00;66.25
24610;BME280;12758;47.890;11.694;2022-09-12T12:57:21;93874.88;;;17.81;67.35
24610;BME280;12758;47.890;11.694;2022-09-12T12:59:50;93871.88;;;17.06;66.04
24610;BME280;12758;47.890;11.694;2022-09-12T13:02:21;93866.38;;;17.33;65.20
24610;BME280;12758;47.890;11.694;2022-09-12T13:04:47;93864.41;;;17.60;63.94
24610;BME280;12758;47.890;11.694;2022-09-12T13:07:22;93854.22;;;18.28;60.76